createdAt,value
2023-02-19T00:00:27.076Z,9.72
2023-02-19T00:05:28.398Z,9.82
2023-02-19T00:10:29.605Z,9.80
2023-02-19T00:15:31.089Z,9.74
2023-02-19T00:20:32.452Z,9.76
2023-02-19T00:25:33.705Z,9.73
2023-02-19T00:30:34.924Z,9.64
2023-02-19T00:35:36.164Z,9.41
2023-02-19T00:40:37.423Z,9.80
2023-02-19T00:45:38.702Z,10.05
2023-02-19T00:50:39.903Z,9.68
2023-02-19T00:55:41.188Z,9.91
2023-02-19T01:00:42.427Z,9.44
2023-02-19T01:05:43.661Z,9.57
2023-02-19T01:10:45.077Z,9.84
2023-02-19T01:15:46.521Z,9.96
2023-02-19T01:20:47.859Z,9.86
2023-02-19T01:25:49.099Z,9.76
2023-02-19T01:30:50.306Z,9.81
2023-02-19T01:35:51.539Z,9.86
2023-02-19T01:40:52.786Z,9.81
2023-02-19T01:45:54.027Z,9.54
2023-02-19T01:50:55.337Z,9.49
2023-02-19T01:55:56.578Z,9.09
2023-02-19T02:00:57.889Z,9.33
2023-02-19T02:05:59.171Z,9.15
2023-02-19T02:11:00.431Z,8.82
2023-02-19T02:16:01.714Z,9.05
2023-02-19T02:21:02.933Z,8.92
2023-02-19T02:26:04.404Z,9.22
2023-02-19T02:31:05.770Z,9.27
2023-02-19T02:36:07.400Z,9.79
2023-02-19T02:41:09.138Z,9.47
2023-02-19T02:46:10.835Z,9.52
2023-02-19T02:51:12.513Z,9.69
2023-02-19T02:56:13.882Z,9.80
2023-02-19T03:01:34.160Z,9.50
2023-02-19T03:06:35.444Z,9.21
2023-02-19T03:11:55.420Z,9.31
2023-02-19T03:17:15.388Z,9.17
2023-02-19T03:22:16.651Z,9.32
2023-02-19T03:27:17.963Z,9.44
2023-02-19T03:32:19.204Z,9.56
2023-02-19T03:37:25.167Z,9.78
2023-02-19T03:42:26.395Z,9.63
2023-02-19T03:47:27.632Z,9.27
2023-02-19T03:52:29.100Z,9.32
2023-02-19T03:57:30.321Z,9.46
2023-02-19T04:02:31.657Z,9.49
2023-02-19T04:07:32.952Z,9.46
2023-02-19T04:12:34.155Z,9.34
2023-02-19T04:17:35.424Z,9.19
2023-02-19T04:22:36.624Z,9.06
2023-02-19T04:27:37.859Z,9.30
2023-02-19T04:32:39.063Z,9.36
2023-02-19T04:37:40.298Z,9.17
2023-02-19T04:42:41.549Z,9.48
2023-02-19T04:47:42.827Z,9.42
2023-02-19T04:52:44.136Z,9.18
2023-02-19T04:57:45.343Z,8.87
2023-02-19T05:02:46.636Z,9.20
2023-02-19T05:07:47.917Z,8.86
2023-02-19T05:12:49.143Z,8.77
2023-02-19T05:17:50.340Z,8.60
2023-02-19T05:22:51.594Z,8.50
2023-02-19T05:28:12.751Z,8.46
2023-02-19T05:33:14.477Z,8.30
2023-02-19T05:38:15.731Z,8.38
2023-02-19T05:43:17.126Z,8.37
2023-02-19T05:48:18.381Z,8.61
2023-02-19T05:53:19.657Z,8.52
2023-02-19T05:58:20.886Z,8.50
2023-02-19T06:03:22.147Z,8.67
2023-02-19T06:08:23.350Z,8.52
2023-02-19T06:13:24.572Z,8.24
2023-02-19T06:18:25.770Z,8.27
2023-02-19T06:23:27.023Z,8.23
2023-02-19T06:28:28.265Z,8.20
2023-02-19T06:33:29.568Z,8.27
2023-02-19T06:38:30.798Z,8.32
2023-02-19T06:43:33.245Z,8.16
2023-02-19T06:48:34.503Z,8.14
2023-02-19T06:53:35.803Z,8.23
2023-02-19T06:58:37.018Z,8.51
2023-02-19T07:03:38.221Z,8.49
2023-02-19T07:08:39.488Z,8.80
2023-02-19T07:13:40.704Z,8.46
2023-02-19T07:18:41.997Z,8.37
2023-02-19T07:23:43.234Z,8.77
2023-02-19T07:28:44.508Z,8.58
2023-02-19T07:33:45.759Z,8.52
2023-02-19T07:38:47.063Z,8.44
2023-02-19T07:43:48.279Z,8.48
2023-02-19T07:48:49.593Z,8.67
2023-02-19T07:53:50.926Z,8.63
2023-02-19T07:58:52.352Z,8.85
2023-02-19T08:03:53.582Z,8.68
2023-02-19T08:08:57.031Z,8.61
2023-02-19T08:13:58.476Z,8.51
2023-02-19T08:18:59.816Z,8.64
2023-02-19T08:24:01.123Z,8.59
2023-02-19T08:29:02.384Z,8.76
2023-02-19T08:34:03.663Z,9.12
2023-02-19T08:39:05.096Z,8.85
2023-02-19T08:44:06.319Z,8.92
2023-02-19T08:49:07.635Z,8.88
2023-02-19T08:54:08.889Z,8.90
2023-02-19T08:59:10.130Z,8.91
2023-02-19T09:04:11.412Z,8.92
2023-02-19T09:09:12.773Z,9.09
2023-02-19T09:14:13.980Z,8.85
2023-02-19T09:19:15.233Z,9.02
2023-02-19T09:24:16.477Z,9.72
2023-02-19T09:29:17.758Z,10.29
2023-02-19T09:34:19.024Z,9.83
2023-02-19T09:39:20.417Z,10.58
2023-02-19T09:44:21.932Z,10.06
2023-02-19T09:49:25.690Z,9.55
2023-02-19T09:54:27.213Z,9.19
2023-02-19T09:59:28.513Z,9.20
2023-02-19T10:04:29.756Z,9.55
2023-02-19T10:09:31.132Z,9.50
2023-02-19T10:14:32.431Z,9.46
2023-02-19T10:19:33.762Z,9.23
2023-02-19T10:24:36.956Z,9.20
2023-02-19T10:29:39.682Z,9.29
2023-02-19T10:34:40.940Z,9.16
2023-02-19T10:39:42.330Z,9.17
2023-02-19T10:44:43.620Z,9.43
2023-02-19T10:49:46.115Z,9.17
2023-02-19T10:54:47.346Z,9.11
2023-02-19T10:59:48.562Z,9.06
2023-02-19T11:04:49.845Z,9.19
2023-02-19T11:09:54.178Z,9.10
2023-02-19T11:14:55.451Z,9.38
2023-02-19T11:19:56.848Z,9.40
2023-02-19T11:24:59.492Z,9.27
2023-02-19T11:30:00.902Z,9.34
2023-02-19T11:35:02.137Z,9.56
2023-02-19T11:40:03.431Z,9.60
2023-02-19T11:45:04.725Z,9.48
2023-02-19T11:50:05.942Z,9.67
2023-02-19T11:55:07.197Z,9.58
2023-02-19T12:00:08.386Z,9.47
2023-02-19T12:05:13.166Z,9.47
2023-02-19T12:10:14.510Z,9.70
2023-02-19T12:15:15.838Z,9.55
2023-02-19T12:20:17.105Z,9.71
2023-02-19T12:25:18.591Z,9.69
2023-02-19T12:30:19.914Z,10.24
2023-02-19T12:35:21.464Z,10.64
2023-02-19T12:40:22.765Z,10.51
2023-02-19T12:45:24.081Z,10.56
2023-02-19T12:50:25.546Z,10.07
2023-02-19T12:55:26.872Z,9.66
2023-02-19T13:00:28.316Z,9.11
2023-02-19T13:05:32.630Z,8.91
2023-02-19T13:10:34.199Z,9.11
2023-02-19T13:15:35.563Z,9.14
2023-02-19T13:20:36.898Z,9.54
2023-02-19T13:25:38.154Z,10.82
2023-02-19T13:30:39.592Z,10.33
2023-02-19T13:35:41.511Z,9.79
2023-02-19T13:40:45.944Z,9.90
2023-02-19T13:45:47.322Z,10.02
2023-02-19T13:50:49.083Z,10.23
2023-02-19T13:55:51.440Z,10.22
2023-02-19T14:00:53.904Z,10.51
2023-02-19T14:05:55.293Z,11.91
2023-02-19T14:11:09.869Z,11.73
2023-02-19T14:16:11.659Z,11.10
2023-02-19T14:21:13.096Z,11.06
2023-02-19T14:26:16.724Z,10.87
2023-02-19T14:31:18.724Z,10.51
2023-02-19T14:36:20.254Z,10.32
2023-02-19T14:41:23.310Z,10.11
2023-02-19T14:46:24.677Z,9.89
2023-02-19T14:51:26.122Z,10.12
2023-02-19T14:56:27.666Z,10.30
2023-02-19T15:01:29.836Z,9.89
2023-02-19T15:06:31.692Z,9.65
2023-02-19T15:11:33.086Z,9.75
2023-02-19T15:16:35.699Z,9.86
2023-02-19T15:21:36.992Z,9.47
2023-02-19T15:26:38.538Z,9.36
2023-02-19T15:31:39.802Z,9.16
2023-02-19T15:36:42.028Z,9.26
2023-02-19T15:41:44.652Z,9.13
2023-02-19T15:46:45.925Z,9.08
2023-02-19T15:51:47.227Z,8.43
2023-02-19T15:56:48.503Z,8.37
2023-02-19T16:01:49.868Z,8.39
2023-02-19T16:06:51.188Z,8.27
2023-02-19T16:11:52.944Z,8.21
2023-02-19T16:16:56.788Z,8.03
2023-02-19T16:21:58.122Z,8.28
2023-02-19T16:26:59.535Z,8.36
2023-02-19T16:32:00.879Z,8.08
2023-02-19T16:37:02.207Z,8.07
2023-02-19T16:42:03.466Z,8.08
2023-02-19T16:47:04.799Z,8.06
2023-02-19T16:52:06.035Z,7.95
2023-02-19T16:57:07.291Z,8.02
2023-02-19T17:07:24.555Z,8.04
2023-02-19T17:12:25.839Z,8.23
2023-02-19T17:17:27.106Z,8.38
2023-02-19T17:22:28.411Z,8.67
2023-02-19T17:27:29.676Z,8.56
2023-02-19T17:32:31.054Z,8.26
2023-02-19T17:37:32.357Z,7.98
2023-02-19T17:42:33.568Z,7.91
2023-02-19T17:47:34.784Z,7.88
2023-02-19T17:52:36.046Z,7.84
2023-02-19T17:57:37.372Z,7.95
2023-02-19T18:02:38.648Z,8.13
2023-02-19T18:07:40.149Z,8.02
2023-02-19T18:12:41.378Z,7.98
2023-02-19T18:17:42.600Z,7.96
2023-02-19T18:22:43.879Z,8.20
2023-02-19T18:27:45.191Z,8.16
2023-02-19T18:32:48.060Z,8.16
2023-02-19T18:37:49.437Z,8.05
2023-02-19T18:42:50.733Z,7.91
2023-02-19T18:47:52.057Z,7.89
2023-02-19T18:52:56.415Z,7.79
2023-02-19T18:57:57.744Z,7.76
2023-02-19T19:08:14.803Z,7.73
2023-02-19T19:13:16.015Z,7.64
2023-02-19T19:18:20.361Z,7.58
2023-02-19T19:23:21.654Z,7.73
2023-02-19T19:28:24.868Z,7.94
2023-02-19T19:33:28.050Z,8.02
2023-02-19T19:38:29.504Z,8.05
2023-02-19T19:43:30.762Z,8.07
2023-02-19T19:48:33.157Z,7.86
2023-02-19T19:53:34.465Z,7.72
2023-02-19T19:58:37.342Z,7.46
2023-02-19T20:03:38.650Z,7.31
2023-02-19T20:08:40.007Z,7.32
2023-02-19T20:13:41.363Z,7.49
2023-02-19T20:18:42.774Z,7.49
2023-02-19T20:23:44.042Z,7.60
2023-02-19T20:28:46.482Z,7.50
2023-02-19T20:33:50.053Z,7.65
2023-02-19T20:38:52.037Z,7.66
2023-02-19T20:43:53.330Z,7.61
2023-02-19T20:48:54.568Z,7.67
2023-02-19T20:53:55.820Z,7.60
2023-02-19T20:58:57.694Z,7.76
2023-02-19T21:03:59.030Z,7.70
2023-02-19T21:09:00.513Z,7.49
2023-02-19T21:14:01.782Z,7.68
2023-02-19T21:19:03.364Z,7.62
2023-02-19T21:24:05.967Z,7.59
2023-02-19T21:29:07.328Z,7.54
2023-02-19T21:34:08.643Z,7.50
2023-02-19T21:39:10.063Z,7.74
2023-02-19T21:44:11.304Z,8.11
2023-02-19T21:49:12.852Z,7.55
2023-02-19T21:54:14.105Z,7.54
2023-02-19T21:59:18.383Z,7.72
2023-02-19T22:04:19.584Z,7.87
2023-02-19T22:09:20.793Z,7.70
2023-02-19T22:14:22.072Z,7.32
2023-02-19T22:19:23.322Z,7.22
2023-02-19T22:24:24.703Z,7.47
2023-02-19T22:29:25.937Z,7.32
2023-02-19T22:34:27.190Z,7.60
2023-02-19T22:39:28.473Z,7.48
2023-02-19T22:44:30.282Z,7.47
2023-02-19T22:49:31.592Z,7.48
2023-02-19T22:54:32.891Z,7.78
2023-02-19T22:59:34.340Z,8.03
2023-02-19T23:04:35.661Z,8.17
2023-02-19T23:09:36.892Z,8.25
2023-02-19T23:14:38.177Z,8.36
2023-02-19T23:19:39.430Z,8.45
2023-02-19T23:24:40.847Z,8.34
2023-02-19T23:29:42.089Z,8.39
2023-02-19T23:34:43.396Z,8.26
2023-02-19T23:39:44.700Z,8.07
2023-02-19T23:44:45.901Z,7.96
2023-02-19T23:49:47.136Z,8.00
2023-02-19T23:54:48.414Z,8.23
2023-02-19T23:59:49.618Z,8.13
